Time;durP1;ratioP1;P1;durP2;ratioP2;P2;SDS_P1;SDS_P2;PMS_P1;PMS_P2;Temp;Humidity;BMP_temperature;BMP_pressure;BME280_temperature;BME280_humidity;BME280_pressure;Samples;Min_cycle;Max_cycle;Signal;HPM_P1;HPM_P2
2022/11/21 00:01:23;;;;;;;2.70;0.38;;;;;;;;;;5052801;28;20029;-69
2022/11/21 00:03:49;;;;;;;2.88;0.40;;;;;;;;;;5052095;28;20029;-69
2022/11/21 00:06:15;;;;;;;1.08;0.45;;;;;;;;;;5053159;28;20036;-69
2022/11/21 00:08:41;;;;;;;0.80;0.20;;;;;;;;;;5053685;28;20027;-69
2022/11/21 00:11:07;;;;;;;0.30;0.20;;;;;;;;;;5051763;28;20037;-69
2022/11/21 00:13:33;;;;;;;0.43;0.15;;;;;;;;;;5052058;28;20047;-69
2022/11/21 00:16:03;;;;;;;1.50;0.30;;;;;;;;;;5054850;28;20072;-69
2022/11/21 00:18:29;;;;;;;4.28;0.20;;;;;;;;;;5053766;28;20025;-69
2022/11/21 00:20:55;;;;;;;0.52;0.20;;;;;;;;;;5051545;28;20078;-69
2022/11/21 00:23:21;;;;;;;1.48;0.20;;;;;;;;;;5052846;28;20036;-69
2022/11/21 00:25:47;;;;;;;1.02;0.10;;;;;;;;;;5052952;28;20039;-69
2022/11/21 00:28:12;;;;;;;0.25;0.15;;;;;;;;;;5053280;28;20021;-69
2022/11/21 00:30:38;;;;;;;0.47;0.20;;;;;;;;;;5052051;28;20025;-69
2022/11/21 00:33:04;;;;;;;0.75;0.17;;;;;;;;;;5052362;28;20021;-70
2022/11/21 00:35:31;;;;;;;0.57;0.30;;;;;;;;;;5051603;28;20452;-69
2022/11/21 00:37:57;;;;;;;0.32;0.17;;;;;;;;;;5052041;28;20059;-69
2022/11/21 00:40:23;;;;;;;1.42;0.20;;;;;;;;;;5052004;28;20055;-69
2022/11/21 00:42:48;;;;;;;0.30;0.22;;;;;;;;;;5051722;28;20371;-69
2022/11/21 00:45:14;;;;;;;0.63;0.15;;;;;;;;;;5052672;28;20051;-70
2022/11/21 00:47:41;;;;;;;0.60;0.20;;;;;;;;;;5052930;28;20032;-69
2022/11/21 00:50:07;;;;;;;0.45;0.28;;;;;;;;;;5050539;28;20118;-69
2022/11/21 00:52:33;;;;;;;0.65;0.20;;;;;;;;;;5052968;28;20017;-69
2022/11/21 00:54:59;;;;;;;4.07;0.68;;;;;;;;;;5050512;28;20158;-69
2022/11/21 00:57:25;;;;;;;0.47;0.20;;;;;;;;;;5052332;28;20465;-69
2022/11/21 00:59:51;;;;;;;0.50;0.13;;;;;;;;;;5051266;28;20044;-69
2022/11/21 01:02:17;;;;;;;2.30;0.20;;;;;;;;;;5053831;28;20029;-69
2022/11/21 01:04:43;;;;;;;1.25;0.20;;;;;;;;;;5034459;28;20452;-69
2022/11/21 01:07:09;;;;;;;0.20;0.10;;;;;;;;;;5050026;28;20043;-69
2022/11/21 01:09:35;;;;;;;1.70;0.32;;;;;;;;;;5031634;28;20433;-69
2022/11/21 01:12:01;;;;;;;1.65;0.15;;;;;;;;;;5050021;28;20029;-69
2022/11/21 01:14:27;;;;;;;0.52;0.10;;;;;;;;;;5062543;28;20473;-69
2022/11/21 01:16:53;;;;;;;1.67;0.30;;;;;;;;;;5050681;28;20107;-69
2022/11/21 01:19:19;;;;;;;1.77;0.30;;;;;;;;;;5051720;28;20025;-69
2022/11/21 01:21:44;;;;;;;1.48;0.20;;;;;;;;;;5051665;28;20048;-69
2022/11/21 01:24:11;;;;;;;0.80;0.20;;;;;;;;;;5033468;28;20104;-69
2022/11/21 01:26:37;;;;;;;3.75;0.40;;;;;;;;;;5052939;28;20055;-69
2022/11/21 01:29:03;;;;;;;1.55;0.17;;;;;;;;;;5050828;28;20508;-69
2022/11/21 01:31:29;;;;;;;1.20;0.20;;;;;;;;;;5046681;28;20029;-69
2022/11/21 01:33:59;;;;;;;0.68;0.20;;;;;;;;;;5051742;28;20029;-69
2022/11/21 01:36:26;;;;;;;3.03;0.60;;;;;;;;;;5051239;28;20477;-69
2022/11/21 01:38:53;;;;;;;2.80;0.60;;;;;;;;;;5050137;28;20048;-69
2022/11/21 01:41:23;;;;;;;3.10;0.22;;;;;;;;;;5051384;28;20028;-69
2022/11/21 01:43:50;;;;;;;5.53;0.47;;;;;;;;;;5049796;28;20029;-69
2022/11/21 01:46:17;;;;;;;3.53;0.45;;;;;;;;;;5050877;28;20047;-69
2022/11/21 01:48:58;;;;;;;2.10;0.25;;;;;;;;;;5051241;28;20473;-69
2022/11/21 01:51:33;;;;;;;1.08;0.30;;;;;;;;;;5051214;28;20405;-69
2022/11/21 01:54:04;;;;;;;3.35;0.40;;;;;;;;;;5038478;28;20021;-69
2022/11/21 01:56:32;;;;;;;0.88;0.30;;;;;;;;;;5051158;28;20024;-69
2022/11/21 01:58:59;;;;;;;5.03;0.52;;;;;;;;;;5051207;28;20021;-69
2022/11/21 02:01:26;;;;;;;4.70;0.82;;;;;;;;;;5031632;28;20166;-68
2022/11/21 02:03:52;;;;;;;2.13;0.40;;;;;;;;;;5050983;28;20029;-69
2022/11/21 02:06:18;;;;;;;1.38;0.25;;;;;;;;;;5050631;28;20033;-69
2022/11/21 02:08:44;;;;;;;1.75;0.43;;;4.30;99.90;;;;;;5051536;28;20104;-69
2022/11/21 02:11:34;;;;;;;2.08;0.50;;;4.30;99.90;;;;;;5049954;28;20064;-69
2022/11/21 02:14:02;;;;;;;2.80;0.55;;;;;;;;;;5058495;28;20378;-69
2022/11/21 02:16:28;;;;;;;2.47;0.40;;;;;;;;;;5051149;28;20059;-69
2022/11/21 02:18:54;;;;;;;0.75;0.28;;;;;;;;;;5057354;28;20090;-69
2022/11/21 02:21:29;;;;;;;3.40;0.30;;;;;;;;;;5050995;28;20505;-69
2022/11/21 02:24:06;;;;;;;3.60;0.50;;;;;;;;;;5050835;28;20021;-69
2022/11/21 02:26:32;;;;;;;0.38;0.20;;;;;;;;;;5044034;28;20056;-69
2022/11/21 02:28:58;;;;;;;2.25;0.40;;;;;;;;;;5050711;28;20028;-69
2022/11/21 02:31:24;;;;;;;2.65;0.20;;;;;;;;;;5050745;28;20043;-69
2022/11/21 02:33:50;;;;;;;2.13;0.30;;;;;;;;;;5049589;28;20021;-69
2022/11/21 02:36:33;;;;;;;1.35;0.47;;;;;;;;;;5053443;28;20032;-69
2022/11/21 02:39:00;;;;;;;1.65;0.40;;;;;;;;;;5063053;28;20021;-69
2022/11/21 02:41:27;;;;;;;1.80;0.45;;;;;;;;;;5051048;28;20025;-69
2022/11/21 02:44:04;;;;;;;3.05;0.40;;;;;;;;;;5050297;28;20116;-69
2022/11/21 02:46:30;;;;;;;6.30;0.40;;;;;;;;;;5049938;28;20674;-69
2022/11/21 02:48:58;;;;;;;1.83;0.43;;;;;;;;;;5049230;28;20032;-69
2022/11/21 02:51:24;;;;;;;0.35;0.20;;;;;;;;;;5050447;28;20029;-69
2022/11/21 02:53:50;;;;;;;4.10;0.30;;;;;;;;;;5049466;28;20032;-69
2022/11/21 02:56:15;;;;;;;0.85;0.30;;;3.90;99.90;;;;;;5066242;28;20465;-69
2022/11/21 02:58:41;;;;;;;2.67;0.32;;;3.80;99.90;;;;;;5052777;28;20074;-69
2022/11/21 03:01:06;;;;;;;0.85;0.30;;;3.80;99.90;;;;;;5049517;28;20021;-69
2022/11/21 03:03:32;;;;;;;0.90;0.30;;;3.80;99.90;;;;;;5050580;28;20022;-69
2022/11/21 03:05:57;;;;;;;0.57;0.40;;;3.80;99.90;;;;;;5048831;28;20048;-69
2022/11/21 03:08:23;;;;;;;1.58;0.28;;;3.80;99.90;;;;;;5051072;28;20031;-69
2022/11/21 03:10:49;;;;;;;1.08;0.38;;;3.90;99.90;;;;;;5046462;28;20076;-69
2022/11/21 03:13:14;;;;;;;0.50;0.20;;;3.90;99.90;;;;;;5050905;28;20063;-69
2022/11/21 03:15:40;;;;;;;0.60;0.10;;;3.90;99.90;;;;;;5050370;28;20037;-69
2022/11/21 03:18:05;;;;;;;0.35;0.08;;;3.90;99.90;;;;;;5054177;28;20040;-69
2022/11/21 03:20:33;;;;;;;0.85;0.20;;;3.80;99.90;;;;;;5050289;28;20032;-69
2022/11/21 03:22:59;;;;;;;1.17;0.20;;;3.80;99.90;;;;;;5031062;28;20373;-69
2022/11/21 03:25:24;;;;;;;1.80;0.30;;;3.80;99.90;;;;;;5050221;28;20039;-69
2022/11/21 03:27:52;;;;;;;0.30;0.10;;;3.80;99.90;;;;;;5050114;28;20033;-69
2022/11/21 03:30:24;;;;;;;2.08;0.20;;;3.80;99.90;;;;;;5056005;28;20500;-69
2022/11/21 03:32:50;;;;;;;0.63;0.10;;;3.70;99.90;;;;;;5053481;28;20021;-69
2022/11/21 03:35:15;;;;;;;0.20;0.20;;;3.70;99.90;;;;;;5053887;28;20036;-69
2022/11/21 03:37:41;;;;;;;1.02;0.13;;;3.80;99.90;;;;;;5053837;28;20032;-69
2022/11/21 03:40:07;;;;;;;0.28;0.10;;;3.90;99.90;;;;;;5051037;28;20029;-69
2022/11/21 03:42:33;;;;;;;0.80;0.30;;;4.00;99.90;;;;;;5061604;28;20382;-69
2022/11/21 03:44:58;;;;;;;0.90;0.20;;;4.10;99.90;;;;;;5052957;28;20025;-68
2022/11/21 03:47:26;;;;;;;0.70;0.20;;;4.10;99.90;;;;;;5053951;28;20493;-69
2022/11/21 03:49:51;;;;;;;0.65;0.20;;;4.10;99.90;;;;;;5052883;28;20025;-69
2022/11/21 03:52:17;;;;;;;0.05;0.05;;;4.20;99.90;;;;;;5052731;28;20032;-69
2022/11/21 03:54:43;;;;;;;2.35;0.10;;;4.30;99.90;;;;;;5054223;28;20039;-69
2022/11/21 03:57:08;;;;;;;0.70;0.20;;;4.30;99.90;;;;;;5051276;28;20481;-69
2022/11/21 03:59:34;;;;;;;2.60;0.20;;;4.40;99.90;;;;;;5053861;28;20029;-70
2022/11/21 04:01:59;;;;;;;0.57;0.20;;;4.40;99.90;;;;;;5062131;28;20060;-70
2022/11/21 04:04:25;;;;;;;0.47;0.20;;;4.60;99.90;;;;;;5057539;28;20064;-70
2022/11/21 04:06:51;;;;;;;2.45;0.40;;;4.60;99.90;;;;;;5052501;28;20060;-68
2022/11/21 04:09:16;;;;;;;1.23;0.20;;;4.70;99.90;;;;;;5054156;28;20510;-68
2022/11/21 04:11:42;;;;;;;1.50;0.30;;;4.60;99.90;;;;;;5051945;28;20111;-69
2022/11/21 04:14:07;;;;;;;0.25;0.17;;;4.60;99.90;;;;;;5051908;28;20021;-69
2022/11/21 04:16:33;;;;;;;2.05;0.43;;;4.60;99.90;;;;;;5052537;28;20033;-69
2022/11/21 04:18:58;;;;;;;2.15;0.20;;;4.60;99.90;;;;;;5053234;28;20029;-69
2022/11/21 04:21:24;;;;;;;0.63;0.30;;;4.60;99.90;;;;;;5035945;28;20142;-69
2022/11/21 04:23:49;;;;;;;2.15;0.25;;;4.60;99.90;;;;;;5052573;28;20033;-69
2022/11/21 04:26:15;;;;;;;2.90;0.30;;;4.60;99.90;;;;;;5034728;28;20032;-69
2022/11/21 04:28:40;;;;;;;2.40;0.50;;;4.60;99.90;;;;;;5051857;28;20048;-69
2022/11/21 04:31:08;;;;;;;1.10;0.43;;;4.50;99.90;;;;;;5050647;28;20033;-69
2022/11/21 04:33:33;;;;;;;2.00;0.32;;;4.50;99.90;;;;;;5053136;28;20025;-69
2022/11/21 04:35:59;;;;;;;2.22;0.98;;;4.40;99.90;;;;;;5051937;28;20033;-69
2022/11/21 04:38:25;;;;;;;2.05;0.30;;;4.50;99.90;;;;;;5053294;28;20052;-69
2022/11/21 04:40:50;;;;;;;3.45;1.15;;;4.40;99.90;;;;;;5056972;28;20043;-68
2022/11/21 04:43:16;;;;;;;1.98;0.47;;;4.40;99.90;;;;;;5053206;28;20520;-69
2022/11/21 04:45:43;;;;;;;5.00;0.80;;;4.40;99.90;;;;;;5052352;28;20033;-69
2022/11/21 04:48:12;;;;;;;1.52;0.50;;;4.40;99.90;;;;;;5050923;28;20607;-69
2022/11/21 04:50:37;;;;;;;1.27;0.43;;;4.40;99.90;;;;;;5052436;28;20021;-69
2022/11/21 04:53:03;;;;;;;1.45;0.32;;;4.40;99.90;;;;;;5051819;28;20036;-69
2022/11/21 04:55:30;;;;;;;0.55;0.28;;;4.50;99.90;;;;;;5052120;28;20033;-69
2022/11/21 04:57:56;;;;;;;3.58;0.40;;;4.40;99.90;;;;;;5052011;28;20025;-69
2022/11/21 05:00:22;;;;;;;1.92;0.55;;;4.40;99.90;;;;;;5050853;28;20017;-70
2022/11/21 05:02:48;;;;;;;0.65;0.50;;;4.40;99.90;;;;;;5055366;28;20481;-69
2022/11/21 05:05:13;;;;;;;2.40;0.45;;;4.40;99.90;;;;;;5050964;28;20037;-69
2022/11/21 05:07:39;;;;;;;0.70;0.20;;;4.50;99.90;;;;;;5052716;28;20029;-69
2022/11/21 05:10:05;;;;;;;1.33;0.40;;;4.50;99.90;;;;;;5047783;28;20722;-69
2022/11/21 05:15:15;;;;;;;1.05;0.40;;;4.40;99.90;;;;;;5051755;28;20083;-70
2022/11/21 05:17:41;;;;;;;1.75;0.30;;;4.30;99.90;;;;;;5052915;28;20421;-69
2022/11/21 05:20:07;;;;;;;2.95;0.60;;;4.30;99.90;;;;;;5051021;28;20059;-69
2022/11/21 05:22:33;;;;;;;3.63;0.60;;;4.30;99.90;;;;;;5051286;28;20025;-69
2022/11/21 05:24:58;;;;;;;0.98;0.30;;;4.30;99.90;;;;;;5050832;28;20028;-69
2022/11/21 05:27:24;;;;;;;1.40;0.52;;;4.30;99.90;;;;;;5052229;28;20040;-69
2022/11/21 05:29:49;;;;;;;2.03;1.20;;;4.20;99.90;;;;;;5051456;28;20458;-68
2022/11/21 05:32:15;;;;;;;1.85;0.82;;;4.20;99.90;;;;;;5051555;28;20029;-69
2022/11/21 05:34:41;;;;;;;1.15;0.47;;;4.20;99.90;;;;;;5052350;28;20054;-69
2022/11/21 05:37:06;;;;;;;1.92;0.60;;;4.20;99.90;;;;;;5049798;28;20116;-69
2022/11/21 05:39:32;;;;;;;7.15;1.67;;;4.20;99.90;;;;;;5051485;28;20049;-69
2022/11/21 05:41:57;;;;;;;3.75;0.50;;;4.20;99.90;;;;;;5050644;28;20386;-69
2022/11/21 05:44:23;;;;;;;1.40;0.50;;;4.10;99.90;;;;;;5052163;28;20071;-69
2022/11/21 05:46:48;;;;;;;1.73;0.63;;;4.10;99.90;;;;;;5060039;28;20040;-69
2022/11/21 05:49:14;;;;;;;2.15;0.75;;;4.10;99.90;;;;;;5052456;28;20418;-69
2022/11/21 05:51:40;;;;;;;2.40;0.47;;;4.10;99.90;;;;;;5050036;28;20025;-69
2022/11/21 05:54:05;;;;;;;3.13;0.68;;;4.20;99.90;;;;;;5051008;28;20155;-69
2022/11/21 05:56:31;;;;;;;5.28;0.90;;;4.20;99.90;;;;;;5051284;28;20029;-69
2022/11/21 05:58:57;;;;;;;2.00;0.45;;;4.20;99.90;;;;;;5055138;28;20126;-69
2022/11/21 06:04:08;;;;;;;1.70;0.70;;;4.20;99.90;;;;;;5050954;28;20051;-69
2022/11/21 06:06:35;;;;;;;1.67;0.47;;;4.20;99.90;;;;;;5050955;28;20033;-69
2022/11/21 06:09:01;;;;;;;1.60;0.50;;;4.30;99.90;;;;;;5049628;28;20428;-69
2022/11/21 06:11:27;;;;;;;6.18;0.70;;;4.30;99.90;;;;;;5061993;28;20186;-69
2022/11/21 06:13:53;;;;;;;2.08;0.57;;;4.40;99.90;;;;;;5051015;28;20037;-68
2022/11/21 06:16:19;;;;;;;2.40;0.40;;;4.50;99.90;;;;;;5051017;28;20100;-68
2022/11/21 06:18:47;;;;;;;2.58;0.73;;;4.50;99.90;;;;;;5051030;28;20021;-70
2022/11/21 06:21:13;;;;;;;2.25;0.55;;;4.50;99.90;;;;;;5050413;28;20366;-69
2022/11/21 06:23:39;;;;;;;1.90;0.50;;;4.50;99.90;;;;;;5050923;28;20032;-68
2022/11/21 06:26:07;;;;;;;3.72;0.70;;;4.50;99.90;;;;;;5030974;28;20037;-68
2022/11/21 06:28:37;;;;;;;4.07;0.57;;;4.60;99.90;;;;;;5051529;28;20055;-69
2022/11/21 06:31:07;;;;;;;2.47;1.05;;;4.60;99.90;;;;;;5049361;28;20532;-69
2022/11/21 06:33:33;;;;;;;3.15;0.93;;;4.60;99.90;;;;;;5051361;28;20140;-69
2022/11/21 06:36:06;;;;;;;4.30;1.40;;;4.60;99.90;;;;;;5046947;28;20051;-68
2022/11/21 06:38:33;;;;;;;2.60;0.90;;;4.60;99.90;;;;;;5063166;28;20029;-69
2022/11/21 06:41:03;;;;;;;3.25;0.52;;;4.70;99.90;;;;;;5032580;28;20108;-68
2022/11/21 06:43:29;;;;;;;4.63;0.80;;;4.60;99.90;;;;;;5051627;28;20056;-69
2022/11/21 06:45:55;;;;;;;6.57;0.77;;;4.70;99.90;;;;;;5048906;28;20494;-69
2022/11/21 06:48:21;;;;;;;4.75;0.65;;;4.60;99.90;;;;;;5050820;28;20025;-69
2022/11/21 06:50:47;;;;;;;7.47;1.38;;;4.60;99.90;;;;;;5050650;28;20028;-77
2022/11/21 06:53:12;;;;;;;5.18;0.95;;;4.70;99.90;;;;;;5033713;28;20036;-82
2022/11/21 06:55:38;;;;;;;3.72;0.77;;;4.70;99.90;;;;;;5049750;28;20037;-70
2022/11/21 06:58:03;;;;;;;2.90;0.80;;;4.60;99.90;;;;;;5057082;28;20053;-69
2022/11/21 07:00:29;;;;;;;1.13;0.52;;;4.60;99.90;;;;;;5049683;28;20025;-71
2022/11/21 07:03:02;;;;;;;3.05;0.70;;;4.60;99.90;;;;;;5043018;28;20040;-71
2022/11/21 07:05:28;;;;;;;2.05;1.00;;;4.60;99.90;;;;;;5051404;28;20037;-71
2022/11/21 07:07:58;;;;;;;1.83;0.85;;;4.50;99.90;;;;;;5050382;28;20033;-73
2022/11/21 07:10:24;;;;;;;2.10;1.13;;;4.40;99.90;;;;;;5054059;28;20150;-69
2022/11/21 07:15:34;;;;;;;1.52;0.70;;;4.30;99.90;;;;;;5048450;28;20150;-73
2022/11/21 07:18:00;;;;;;;5.00;0.85;;;4.20;99.90;;;;;;5052407;28;20040;-69
2022/11/21 07:20:26;;;;;;;3.05;0.75;;;4.10;99.90;;;;;;5034193;28;20017;-71
2022/11/21 07:22:55;;;;;;;2.47;0.90;;;4.00;99.90;;;;;;5045470;28;20036;-71
2022/11/21 07:25:21;;;;;;;2.28;0.85;;;4.00;99.90;;;;;;5044791;28;20032;-71
2022/11/21 07:27:47;;;;;;;1.65;0.77;;;4.00;99.90;;;;;;5048973;28;20037;-71
2022/11/21 07:30:13;;;;;;;2.22;0.50;;;4.00;99.90;;;;;;5051827;28;20457;-71
2022/11/21 07:32:39;;;;;;;3.35;0.95;;;4.00;99.90;;;;;;5049449;28;20086;-70
2022/11/21 07:35:05;;;;;;;1.95;1.10;;;4.00;99.90;;;;;;5049973;28;20156;-71
2022/11/21 07:37:31;;;;;;;1.02;0.68;;;3.90;99.90;;;;;;5052495;28;20362;-72
2022/11/21 07:39:56;;;;;;;4.78;1.17;;;3.90;99.90;;;;;;5052085;28;20021;-71
2022/11/21 07:42:22;;;;;;;4.10;0.80;;;4.00;99.90;;;;;;5053750;28;20029;-71
2022/11/21 07:44:47;;;;;;;2.80;0.90;;;3.90;99.90;;;;;;5029931;28;20076;-72
2022/11/21 07:47:16;;;;;;;1.83;0.80;;;3.90;99.90;;;;;;5049811;28;20033;-72
2022/11/21 07:49:41;;;;;;;4.38;0.95;;;3.90;99.90;;;;;;5034327;28;20112;-69
2022/11/21 07:52:07;;;;;;;4.25;1.02;;;4.00;99.90;;;;;;5042143;28;20140;-71
2022/11/21 07:54:32;;;;;;;1.73;1.00;;;4.00;99.90;;;;;;5053358;28;20481;-70
2022/11/21 07:56:58;;;;;;;3.00;1.25;;;4.10;99.90;;;;;;5051873;28;20444;-70
2022/11/21 07:59:23;;;;;;;5.30;1.17;;;4.10;99.90;;;;;;5042837;28;20036;-70
2022/11/21 08:01:51;;;;;;;5.43;1.20;;;4.10;99.90;;;;;;5051824;28;20025;-70
2022/11/21 08:04:16;;;;;;;4.78;1.20;;;4.20;99.90;;;;;;5048775;28;20036;-70
2022/11/21 08:06:42;;;;;;;8.15;1.20;;;4.30;99.90;;;;;;5051354;28;20032;-70
2022/11/21 08:09:07;;;;;;;3.42;1.17;;;4.40;99.90;;;;;;5052984;28;20056;-70
2022/11/21 08:11:35;;;;;;;4.18;1.05;;;4.50;99.90;;;;;;5050999;28;20056;-70
2022/11/21 08:14:01;;;;;;;3.83;0.95;;;4.60;99.90;;;;;;5052156;28;20060;-70
2022/11/21 08:16:26;;;;;;;6.25;1.00;;;4.70;99.90;;;;;;5052286;28;20075;-70
2022/11/21 08:18:53;;;;;;;4.93;1.60;;;4.70;99.90;;;;;;5051906;28;20481;-70
2022/11/21 08:21:18;;;;;;;4.10;0.93;;;4.90;99.90;;;;;;5052412;28;20219;-70
2022/11/21 08:23:44;;;;;;;4.43;1.27;;;5.00;99.90;;;;;;5034260;28;20135;-73
2022/11/21 08:26:10;;;;;;;6.53;1.48;;;5.10;99.90;;;;;;5051421;28;20048;-72
2022/11/21 08:28:35;;;;;;;5.45;1.30;;;5.10;99.90;;;;;;5034502;28;20444;-71
2022/11/21 08:31:05;;;;;;;4.75;1.38;;;5.10;99.90;;;;;;5039413;28;20108;-71
2022/11/21 08:33:31;;;;;;;3.80;1.30;;;5.20;99.90;;;;;;5039935;28;20132;-72
2022/11/21 08:35:57;;;;;;;5.45;1.42;;;5.20;99.90;;;;;;5051010;28;20033;-72
2022/11/21 08:38:23;;;;;;;4.13;1.15;;;5.20;99.90;;;;;;5051869;28;20079;-72
2022/11/21 08:42:01;;;;;;;2.20;1.05;;;5.20;99.90;;;;;;5032529;28;20029;-71
2022/11/21 08:43:37;;;;;;;5.88;1.13;;;5.30;99.90;;;;;;5049134;28;20024;-72
2022/11/21 08:46:02;;;;;;;5.10;1.38;;;5.30;99.90;;;;;;5050683;28;20033;-72
2022/11/21 08:48:28;;;;;;;2.92;1.25;;;5.40;99.90;;;;;;5052342;28;20112;-72
2022/11/21 08:50:56;;;;;;;4.93;1.40;;;5.50;99.90;;;;;;5050667;28;20083;-72
2022/11/21 08:53:22;;;;;;;2.58;1.15;;;5.50;99.90;;;;;;5055415;28;20367;-72
2022/11/21 08:55:47;;;;;;;3.33;1.35;;;5.60;99.90;;;;;;5050657;28;20029;-72
2022/11/21 08:58:13;;;;;;;3.60;1.30;;;5.60;99.90;;;;;;5049280;28;20078;-72
2022/11/21 09:00:39;;;;;;;4.65;1.00;;;5.70;99.90;;;;;;5051804;28;20099;-72
2022/11/21 09:03:05;;;;;;;5.45;1.45;;;5.70;99.90;;;;;;5051563;28;20023;-72
2022/11/21 09:05:31;;;;;;;7.10;1.70;;;5.80;99.90;;;;;;5051544;28;20033;-73
2022/11/21 09:07:57;;;;;;;4.72;2.08;;;5.90;99.90;;;;;;5050607;28;20116;-72
2022/11/21 09:10:24;;;;;;;5.30;1.10;;;6.00;99.90;;;;;;5050748;28;20053;-72
2022/11/21 09:12:50;;;;;;;3.67;1.40;;;6.10;99.90;;;;;;5048350;28;20036;-72
2022/11/21 09:18:04;;;;;;;6.25;1.42;;;6.30;99.90;;;;;;5050214;28;20071;-71
2022/11/21 09:20:38;;;;;;;4.90;1.23;;;6.40;99.90;;;;;;5044985;28;20063;-70
2022/11/21 09:23:09;;;;;;;7.40;1.45;;;6.50;99.90;;;;;;5050232;28;20121;-72
2022/11/21 09:25:34;;;;;;;5.45;1.33;;;6.60;99.90;;;;;;5050649;28;20495;-73
2022/11/21 09:28:04;;;;;;;5.72;2.42;;;6.70;99.90;;;;;;5049443;28;20104;-72
2022/11/21 09:30:30;;;;;;;7.28;1.50;;;6.90;99.90;;;;;;5051172;28;20470;-70
2022/11/21 09:33:04;;;;;;;5.50;1.80;;;7.00;99.90;;;;;;5049961;28;20044;-72
2022/11/21 09:35:30;;;;;;;7.65;1.60;;;7.00;99.90;;;;;;5050767;28;20053;-72
2022/11/21 09:37:56;;;;;;;4.50;1.05;;;7.20;99.90;;;;;;5045754;28;20036;-72
2022/11/21 09:40:22;;;;;;;6.53;1.38;;;7.30;99.90;;;;;;5046460;28;20048;-72
2022/11/21 09:43:09;;;;;;;3.95;1.00;;;7.50;99.90;;;;;;5050758;28;20025;-72
2022/11/21 09:45:47;;;;;;;4.05;1.65;;;7.60;99.90;;;;;;5044315;28;20029;-72
2022/11/21 09:48:35;;;;;;;4.28;1.65;;;7.70;99.90;;;;;;5050228;28;20025;-72
2022/11/21 09:51:08;;;;;;;6.32;1.40;;;7.80;99.90;;;;;;5047909;28;20029;-72
2022/11/21 09:53:38;;;;;;;9.27;1.27;;;7.90;99.90;;;;;;5051157;28;20056;-72
2022/11/21 09:56:12;;;;;;;5.72;1.45;;;8.00;99.90;;;;;;5049214;28;20036;-72
2022/11/21 09:59:16;;;;;;;4.50;1.25;;;8.00;99.90;;;;;;5050987;28;20029;-72
2022/11/21 10:01:42;;;;;;;4.22;1.00;;;8.10;99.90;;;;;;5010947;28;20102;-72
2022/11/21 10:04:07;;;;;;;7.35;1.15;;;8.00;99.90;;;;;;5049934;28;20242;-72
2022/11/21 10:06:46;;;;;;;6.38;1.40;;;8.10;99.90;;;;;;5050176;28;20043;-72
2022/11/21 10:09:25;;;;;;;4.53;1.00;;;8.10;99.90;;;;;;5050488;28;20013;-71
2022/11/21 10:15:19;;;;;;;4.30;1.00;;;8.20;99.90;;;;;;5049723;28;20114;-72
2022/11/21 10:18:09;;;;;;;9.10;1.30;;;8.20;99.90;;;;;;4972928;28;20038;-71
2022/11/21 10:20:54;;;;;;;5.10;1.23;;;8.20;99.90;;;;;;5044915;28;20025;-71
2022/11/21 10:23:45;;;;;;;3.78;1.27;;;8.40;99.90;;;;;;5040042;28;20158;-72
2022/11/21 10:26:15;;;;;;;7.90;1.60;;;;;;;;;;5048813;28;20473;-72
2022/11/21 10:28:58;;;;;;;7.15;1.02;;;;;;;;;;5050650;28;20036;-72
2022/11/21 10:31:25;;;;;;;9.32;1.25;;;;;;;;;;5039094;28;20084;-72
2022/11/21 10:33:52;;;;;;;5.78;1.50;;;;;;;;;;5049472;28;20105;-72
2022/11/21 10:36:24;;;;;;;4.78;1.20;;;;;;;;;;5049713;28;20460;-72
2022/11/21 10:38:53;;;;;;;7.38;1.48;;;;;;;;;;5046758;28;20424;-72
2022/11/21 10:41:35;;;;;;;5.30;1.00;;;;;;;;;;5051195;28;20092;-72
2022/11/21 10:47:02;;;;;;;10.75;1.70;;;;;;;;;;5053165;28;20048;-72
2022/11/21 10:49:34;;;;;;;4.88;1.15;;;;;;;;;;5054370;28;20071;-72
2022/11/21 10:52:06;;;;;;;4.85;1.17;;;;;;;;;;5052850;28;20083;-72
2022/11/21 10:54:33;;;;;;;8.80;1.35;;;;;;;;;;5053908;28;20432;-72
2022/11/21 10:57:14;;;;;;;4.18;0.90;;;9.00;99.90;;;;;;5052865;28;20021;-71
2022/11/21 10:59:40;;;;;;;6.30;1.30;;;9.10;99.90;;;;;;5049635;28;20035;-72
2022/11/21 11:02:12;;;;;;;4.28;1.35;;;9.20;99.90;;;;;;5046374;28;20041;-72
2022/11/21 11:04:38;;;;;;;7.38;1.50;;;9.40;99.90;;;;;;5053967;28;20097;-72
2022/11/21 11:07:19;;;;;;;6.00;1.52;;;9.60;99.90;;;;;;5052948;28;20033;-72
2022/11/21 11:09:46;;;;;;;6.03;1.15;;;9.80;99.90;;;;;;5053657;28;20048;-71
2022/11/21 11:15:18;;;;;;;4.70;1.55;;;10.00;99.90;;;;;;5051744;28;20127;-71
2022/11/21 11:17:50;;;;;;;6.93;1.15;;;10.10;99.90;;;;;;5046179;28;20025;-72
2022/11/21 11:20:33;;;;;;;3.30;0.98;;;10.30;99.90;;;;;;5034789;28;20029;-72
2022/11/21 11:22:59;;;;;;;6.13;1.15;;;10.30;99.90;;;;;;5058326;28;20017;-71
2022/11/21 11:25:25;;;;;;;4.47;1.17;;;10.30;99.90;;;;;;5054959;28;20037;-71
2022/11/21 11:27:51;;;;;;;5.55;1.42;;;10.40;99.90;;;;;;5052793;28;20040;-72
2022/11/21 11:30:18;;;;;;;2.78;0.75;;;10.40;99.90;;;;;;5045955;28;20037;-72
2022/11/21 11:32:44;;;;;;;3.60;0.90;;;10.40;99.90;;;;;;5053708;28;20025;-72
2022/11/21 11:35:15;;;;;;;6.57;1.40;;;10.20;99.90;;;;;;5052114;28;20123;-72
2022/11/21 11:37:43;;;;;;;3.97;1.42;;;10.20;99.90;;;;;;5035375;28;20021;-71
2022/11/21 11:40:33;;;;;;;4.75;1.67;;;10.10;99.90;;;;;;5052246;28;20021;-72
2022/11/21 11:49:12;;;;;;;;;;;10.20;99.90;;;;;;5053171;28;20539;-74
2022/11/21 11:51:47;;;;;;;4.47;1.27;;;10.20;99.90;;;;;;5054069;28;19908;-72
2022/11/21 11:54:18;;;;;;;5.50;0.80;;;10.20;99.90;;;;;;5027379;28;20487;-72
2022/11/21 11:56:45;;;;;;;4.13;1.05;;;10.10;99.90;;;;;;5053665;28;20033;-72
2022/11/21 11:59:14;;;;;;;3.67;0.73;;;10.10;99.90;;;;;;5048854;28;20116;-73
2022/11/21 12:01:40;;;;;;;4.38;1.00;;;10.00;99.90;;;;;;5053877;28;20025;-73
2022/11/21 12:04:12;;;;;;;7.47;1.10;;;9.90;99.90;;;;;;5053698;28;20055;-72
2022/11/21 12:06:45;;;;;;;3.17;1.10;;;10.00;99.90;;;;;;5052458;28;20040;-72
2022/11/21 12:09:33;;;;;;;2.17;0.90;;;10.10;99.90;;;;;;5052222;28;20069;-72
2022/11/21 12:12:34;;;;;;;7.50;1.23;;;10.10;99.90;;;;;;5052279;28;20120;-73
2022/11/21 12:18:18;;;;;;;4.15;1.38;;;10.20;99.90;;;;;;5046626;28;20103;-72
2022/11/21 12:20:57;;;;;;;3.88;1.40;;;10.20;99.90;;;;;;5047759;28;20462;-72
2022/11/21 12:23:36;;;;;;;8.57;1.63;;;10.30;99.90;;;;;;5051135;28;20032;-73
2022/11/21 12:26:17;;;;;;;5.78;1.25;;;10.40;99.90;;;;;;5047958;28;20033;-72
2022/11/21 12:29:21;;;;;;;3.80;0.75;;;10.40;99.90;;;;;;5047810;28;20116;-72
2022/11/21 12:32:14;;;;;;;5.55;1.20;;;10.30;99.90;;;;;;5042348;28;20055;-72
2022/11/21 12:34:54;;;;;;;4.22;0.90;;;10.20;99.90;;;;;;5050993;28;20025;-72
2022/11/21 12:37:26;;;;;;;4.82;1.17;;;10.10;99.90;;;;;;5049918;28;20108;-72
2022/11/21 12:40:03;;;;;;;3.22;0.88;;;10.00;99.90;;;;;;5047994;28;20052;-73
2022/11/21 12:42:49;;;;;;;5.32;0.98;;;10.00;99.90;;;;;;5048486;28;20112;-72
2022/11/21 12:45:35;;;;;;;2.67;0.98;;;10.00;99.90;;;;;;5048020;28;20378;-72
2022/11/21 12:54:29;;;;;;;2.67;1.05;;;10.40;99.90;;;;;;5051368;28;20067;-72
2022/11/21 12:57:13;;;;;;;6.50;1.40;;;10.60;99.90;;;;;;5046278;28;20021;-71
2022/11/21 13:00:14;;;;;;;4.57;1.10;;;10.70;99.90;;;;;;5046852;28;20104;-72
2022/11/21 13:02:49;;;;;;;6.50;1.10;;;10.60;99.90;;;;;;5042133;28;20098;-73
2022/11/21 13:05:23;;;;;;;3.28;1.10;;;10.60;99.90;;;;;;5051609;28;20025;-73
2022/11/21 13:07:54;;;;;;;5.57;1.13;;;10.60;99.90;;;;;;5052907;28;20139;-73
2022/11/21 13:10:20;;;;;;;4.47;0.80;;;10.60;99.90;;;;;;5051475;28;20477;-73
2022/11/21 13:12:49;;;;;;;4.15;0.70;;;10.60;99.90;;;;;;5051062;28;20073;-74
2022/11/21 13:15:25;;;;;;;2.90;1.00;;;10.60;99.90;;;;;;5048212;28;20028;-73
2022/11/21 13:18:00;;;;;;;3.08;1.13;;;10.70;99.90;;;;;;5050670;28;20036;-73
2022/11/21 13:20:29;;;;;;;9.02;1.20;;;10.60;99.90;;;;;;5051035;28;20033;-74
2022/11/21 13:22:57;;;;;;;4.85;1.02;;;10.70;99.90;;;;;;5050858;28;20075;-73
2022/11/21 13:25:31;;;;;;;3.20;1.05;;;10.70;99.90;;;;;;5051014;28;20059;-72
2022/11/21 13:28:12;;;;;;;2.60;0.82;;;10.70;99.90;;;;;;5050567;28;20043;-73
2022/11/21 13:30:49;;;;;;;2.20;0.75;;;10.70;99.90;;;;;;5050471;28;20532;-72
2022/11/21 13:33:36;;;;;;;3.42;1.02;;;10.70;99.90;;;;;;5051655;28;20032;-73
2022/11/21 13:36:06;;;;;;;4.20;1.13;;;10.70;99.90;;;;;;5050478;28;20037;-73
2022/11/21 13:38:55;;;;;;;4.75;1.30;;;10.70;99.90;;;;;;5042800;28;20032;-73
2022/11/21 13:44:29;;;;;;;3.25;1.35;;;10.80;99.90;;;;;;5049470;28;20101;-72
2022/11/21 13:46:58;;;;;;;2.08;0.93;;;10.80;99.90;;;;;;5049399;28;20037;-72
2022/11/21 13:49:50;;;;;;;3.50;1.02;;;10.70;99.90;;;;;;5051055;28;20091;-73
2022/11/21 13:52:22;;;;;;;5.50;1.20;;;10.60;99.90;;;;;;5044023;28;20500;-72
2022/11/21 13:55:06;;;;;;;5.22;1.17;;;10.50;99.90;;;;;;5050288;28;20540;-73
2022/11/21 13:57:50;;;;;;;2.72;1.38;;;10.40;99.90;;;;;;5047369;28;20021;-72
2022/11/21 14:00:21;;;;;;;3.67;1.25;;;10.20;99.90;;;;;;5050748;28;20017;-72
2022/11/21 14:03:13;;;;;;;3.67;1.27;;;10.10;99.90;;;;;;5032787;28;20373;-73
2022/11/21 14:05:52;;;;;;;5.70;1.30;;;10.00;99.90;;;;;;5050373;28;20033;-72
2022/11/21 14:08:26;;;;;;;3.53;1.10;;;10.00;99.90;;;;;;5050812;28;20025;-72
2022/11/21 14:10:53;;;;;;;4.32;1.13;;;9.80;99.90;;;;;;5045675;28;20136;-73